sensor_id;sensor_type;location;lat;lon;timestamp;temperature;humidity
52397;DHT22;38322;53.108;6.308;2023-04-16T05:01:56;7.40;99.90
52397;DHT22;38322;53.108;6.308;2023-04-16T05:04:22;7.40;99.90
52397;DHT22;38322;53.108;6.308;2023-04-16T05:06:48;7.50;99.90
52397;DHT22;38322;53.108;6.308;2023-04-16T05:09:14;7.40;99.90
52397;DHT22;38322;53.108;6.308;2023-04-16T05:11:40;7.40;99.90
52397;DHT22;38322;53.108;6.308;2023-04-16T05:14:07;7.40;99.90
52397;DHT22;38322;53.108;6.308;2023-04-16T05:16:36;7.40;99.90
52397;DHT22;38322;53.108;6.308;2023-04-16T05:19:02;7.50;99.90
52397;DHT22;38322;53.108;6.308;2023-04-16T05:21:28;7.50;99.90
52397;DHT22;38322;53.108;6.308;2023-04-16T05:23:54;7.50;99.90
52397;DHT22;38322;53.108;6.308;2023-04-16T05:26:20;7.50;99.90
52397;DHT22;38322;53.108;6.308;2023-04-16T05:28:47;7.50;99.90
52397;DHT22;38322;53.108;6.308;2023-04-16T05:31:13;7.50;99.90
52397;DHT22;38322;53.108;6.308;2023-04-16T05:33:39;7.60;99.90
52397;DHT22;38322;53.108;6.308;2023-04-16T05:36:04;7.60;99.90
52397;DHT22;38322;53.108;6.308;2023-04-16T05:38:30;7.70;99.90
52397;DHT22;38322;53.108;6.308;2023-04-16T05:40:57;7.70;99.90
52397;DHT22;38322;53.108;6.308;2023-04-16T05:43:23;7.80;99.90
52397;DHT22;38322;53.108;6.308;2023-04-16T05:45:49;7.80;99.90
52397;DHT22;38322;53.108;6.308;2023-04-16T05:48:15;7.90;99.90
52397;DHT22;38322;53.108;6.308;2023-04-16T05:50:40;7.90;99.90
52397;DHT22;38322;53.108;6.308;2023-04-16T05:53:07;8.00;99.90
52397;DHT22;38322;53.108;6.308;2023-04-16T05:55:34;8.00;99.90
52397;DHT22;38322;53.108;6.308;2023-04-16T05:58:01;8.00;99.90
52397;DHT22;38322;53.108;6.308;2023-04-16T06:00:31;8.10;99.90
52397;DHT22;38322;53.108;6.308;2023-04-16T06:02:57;8.10;99.90
52397;DHT22;38322;53.108;6.308;2023-04-16T06:05:24;8.10;99.90
52397;DHT22;38322;53.108;6.308;2023-04-16T06:07:51;8.10;99.90
52397;DHT22;38322;53.108;6.308;2023-04-16T06:10:17;8.10;99.90
52397;DHT22;38322;53.108;6.308;2023-04-16T06:12:43;8.20;99.90
52397;DHT22;38322;53.108;6.308;2023-04-16T06:15:09;8.20;99.90
52397;DHT22;38322;53.108;6.308;2023-04-16T06:17:35;8.20;99.90
52397;DHT22;38322;53.108;6.308;2023-04-16T06:20:01;8.30;99.90
52397;DHT22;38322;53.108;6.308;2023-04-16T06:22:26;8.30;99.90
52397;DHT22;38322;53.108;6.308;2023-04-16T06:24:53;8.30;99.90
52397;DHT22;38322;53.108;6.308;2023-04-16T06:27:18;8.40;99.90
52397;DHT22;38322;53.108;6.308;2023-04-16T06:29:44;8.40;99.90
52397;DHT22;38322;53.108;6.308;2023-04-16T06:32:10;8.50;99.90
52397;DHT22;38322;53.108;6.308;2023-04-16T06:34:37;8.50;99.90
52397;DHT22;38322;53.108;6.308;2023-04-16T06:37:03;8.50;99.90
52397;DHT22;38322;53.108;6.308;2023-04-16T06:39:29;8.50;99.90
52397;DHT22;38322;53.108;6.308;2023-04-16T06:41:55;8.60;99.90
52397;DHT22;38322;53.108;6.308;2023-04-16T06:44:22;8.60;99.90
52397;DHT22;38322;53.108;6.308;2023-04-16T06:46:48;8.60;99.90
52397;DHT22;38322;53.108;6.308;2023-04-16T06:49:14;8.70;99.90
52397;DHT22;38322;53.108;6.308;2023-04-16T06:51:41;8.70;99.90
52397;DHT22;38322;53.108;6.308;2023-04-16T06:54:06;8.90;99.90
52397;DHT22;38322;53.108;6.308;2023-04-16T06:56:32;8.80;99.90
52397;DHT22;38322;53.108;6.308;2023-04-16T06:58:58;8.90;99.90
52397;DHT22;38322;53.108;6.308;2023-04-16T07:01:25;9.00;99.90
52397;DHT22;38322;53.108;6.308;2023-04-16T07:03:52;9.00;99.90
52397;DHT22;38322;53.108;6.308;2023-04-16T07:06:18;9.10;99.90
52397;DHT22;38322;53.108;6.308;2023-04-16T07:08:44;9.30;99.90
52397;DHT22;38322;53.108;6.308;2023-04-16T07:11:10;9.40;99.90
52397;DHT22;38322;53.108;6.308;2023-04-16T07:13:36;9.50;99.90
52397;DHT22;38322;53.108;6.308;2023-04-16T07:16:02;9.60;99.90
52397;DHT22;38322;53.108;6.308;2023-04-16T07:18:28;9.60;99.90
52397;DHT22;38322;53.108;6.308;2023-04-16T07:20:54;9.60;99.90
52397;DHT22;38322;53.108;6.308;2023-04-16T07:23:20;9.60;99.90
52397;DHT22;38322;53.108;6.308;2023-04-16T07:25:45;9.70;99.90
52397;DHT22;38322;53.108;6.308;2023-04-16T07:28:11;9.70;99.90
52397;DHT22;38322;53.108;6.308;2023-04-16T07:30:37;9.80;99.90
52397;DHT22;38322;53.108;6.308;2023-04-16T07:33:03;9.90;99.90
52397;DHT22;38322;53.108;6.308;2023-04-16T07:35:30;10.00;99.90
52397;DHT22;38322;53.108;6.308;2023-04-16T07:37:55;10.00;99.90
52397;DHT22;38322;53.108;6.308;2023-04-16T07:40:22;10.00;99.90
52397;DHT22;38322;53.108;6.308;2023-04-16T07:42:48;10.00;99.90
52397;DHT22;38322;53.108;6.308;2023-04-16T07:45:14;10.10;99.90
52397;DHT22;38322;53.108;6.308;2023-04-16T07:47:40;10.10;99.90
52397;DHT22;38322;53.108;6.308;2023-04-16T07:50:07;10.20;99.90
52397;DHT22;38322;53.108;6.308;2023-04-16T07:52:33;10.30;99.90
52397;DHT22;38322;53.108;6.308;2023-04-16T07:54:59;10.50;99.90
52397;DHT22;38322;53.108;6.308;2023-04-16T07:57:24;10.60;99.90
52397;DHT22;38322;53.108;6.308;2023-04-16T07:59:50;10.60;99.90
52397;DHT22;38322;53.108;6.308;2023-04-16T08:02:16;10.60;99.90
52397;DHT22;38322;53.108;6.308;2023-04-16T08:04:43;10.70;99.90
52397;DHT22;38322;53.108;6.308;2023-04-16T08:07:08;10.70;99.90
52397;DHT22;38322;53.108;6.308;2023-04-16T08:09:34;10.90;99.90
52397;DHT22;38322;53.108;6.308;2023-04-16T08:12:01;11.00;99.90
52397;DHT22;38322;53.108;6.308;2023-04-16T08:14:27;11.10;99.90
52397;DHT22;38322;53.108;6.308;2023-04-16T08:16:53;11.30;99.90
52397;DHT22;38322;53.108;6.308;2023-04-16T08:19:19;11.50;99.90
52397;DHT22;38322;53.108;6.308;2023-04-16T08:21:45;11.80;99.90
52397;DHT22;38322;53.108;6.308;2023-04-16T08:24:11;11.80;99.90
52397;DHT22;38322;53.108;6.308;2023-04-16T08:26:37;11.80;99.90
52397;DHT22;38322;53.108;6.308;2023-04-16T08:29:03;11.80;99.90
52397;DHT22;38322;53.108;6.308;2023-04-16T08:31:29;11.70;99.90
52397;DHT22;38322;53.108;6.308;2023-04-16T08:33:55;11.80;99.90
52397;DHT22;38322;53.108;6.308;2023-04-16T08:36:21;11.90;99.90
52397;DHT22;38322;53.108;6.308;2023-04-16T08:38:47;12.00;99.90
52397;DHT22;38322;53.108;6.308;2023-04-16T08:41:13;12.00;99.90
52397;DHT22;38322;53.108;6.308;2023-04-16T08:43:43;12.10;99.90
52397;DHT22;38322;53.108;6.308;2023-04-16T08:46:10;12.20;99.90
52397;DHT22;38322;53.108;6.308;2023-04-16T08:48:36;12.10;99.90
52397;DHT22;38322;53.108;6.308;2023-04-16T08:51:06;12.30;99.90
52397;DHT22;38322;53.108;6.308;2023-04-16T08:53:42;12.40;99.90
52397;DHT22;38322;53.108;6.308;2023-04-16T08:56:09;12.40;99.90
52397;DHT22;38322;53.108;6.308;2023-04-16T08:58:36;12.50;99.90
52397;DHT22;38322;53.108;6.308;2023-04-16T09:01:04;12.60;99.90
52397;DHT22;38322;53.108;6.308;2023-04-16T09:03:31;12.60;99.90
52397;DHT22;38322;53.108;6.308;2023-04-16T09:05:57;12.60;99.90
52397;DHT22;38322;53.108;6.308;2023-04-16T09:08:25;12.70;99.90
52397;DHT22;38322;53.108;6.308;2023-04-16T09:10:52;12.70;99.90
52397;DHT22;38322;53.108;6.308;2023-04-16T09:13:20;12.70;99.90
52397;DHT22;38322;53.108;6.308;2023-04-16T09:15:52;12.70;99.90
52397;DHT22;38322;53.108;6.308;2023-04-16T09:18:18;12.70;99.90
52397;DHT22;38322;53.108;6.308;2023-04-16T09:20:47;12.80;99.90
52397;DHT22;38322;53.108;6.308;2023-04-16T09:23:13;12.90;99.90
52397;DHT22;38322;53.108;6.308;2023-04-16T09:25:39;12.90;99.90
52397;DHT22;38322;53.108;6.308;2023-04-16T09:28:05;13.00;99.90
52397;DHT22;38322;53.108;6.308;2023-04-16T09:30:31;13.10;99.90
52397;DHT22;38322;53.108;6.308;2023-04-16T09:33:13;13.10;99.90
52397;DHT22;38322;53.108;6.308;2023-04-16T09:35:48;13.20;99.90
52397;DHT22;38322;53.108;6.308;2023-04-16T09:38:15;13.30;99.90
52397;DHT22;38322;53.108;6.308;2023-04-16T09:40:41;13.20;99.90
52397;DHT22;38322;53.108;6.308;2023-04-16T09:43:16;13.20;99.90
52397;DHT22;38322;53.108;6.308;2023-04-16T09:45:48;13.20;99.90
52397;DHT22;38322;53.108;6.308;2023-04-16T09:48:15;13.10;99.90
52397;DHT22;38322;53.108;6.308;2023-04-16T09:50:49;13.20;99.90
52397;DHT22;38322;53.108;6.308;2023-04-16T09:53:23;13.30;99.90
52397;DHT22;38322;53.108;6.308;2023-04-16T09:55:50;13.40;99.90
52397;DHT22;38322;53.108;6.308;2023-04-16T09:58:18;13.40;99.90
52397;DHT22;38322;53.108;6.308;2023-04-16T10:00:44;13.60;99.90
52397;DHT22;38322;53.108;6.308;2023-04-16T10:03:11;13.60;99.90
52397;DHT22;38322;53.108;6.308;2023-04-16T10:05:36;13.70;99.90
52397;DHT22;38322;53.108;6.308;2023-04-16T10:08:10;13.80;99.90
52397;DHT22;38322;53.108;6.308;2023-04-16T10:10:37;13.80;99.90
52397;DHT22;38322;53.108;6.308;2023-04-16T10:13:02;13.90;99.90
52397;DHT22;38322;53.108;6.308;2023-04-16T10:15:29;13.90;99.90
52397;DHT22;38322;53.108;6.308;2023-04-16T10:17:57;13.90;99.90
52397;DHT22;38322;53.108;6.308;2023-04-16T10:20:23;13.90;99.90
52397;DHT22;38322;53.108;6.308;2023-04-16T10:22:49;13.90;99.90
52397;DHT22;38322;53.108;6.308;2023-04-16T10:25:15;14.00;99.90
52397;DHT22;38322;53.108;6.308;2023-04-16T10:27:42;13.90;99.90
52397;DHT22;38322;53.108;6.308;2023-04-16T10:30:10;13.90;99.90
52397;DHT22;38322;53.108;6.308;2023-04-16T10:32:36;14.00;99.90
52397;DHT22;38322;53.108;6.308;2023-04-16T10:35:03;14.00;99.90
52397;DHT22;38322;53.108;6.308;2023-04-16T10:37:30;14.10;99.90
52397;DHT22;38322;53.108;6.308;2023-04-16T10:39:57;14.10;99.90
52397;DHT22;38322;53.108;6.308;2023-04-16T10:42:24;14.00;99.90
52397;DHT22;38322;53.108;6.308;2023-04-16T10:44:50;14.00;99.90
52397;DHT22;38322;53.108;6.308;2023-04-16T10:47:16;14.00;99.90
52397;DHT22;38322;53.108;6.308;2023-04-16T10:49:42;14.00;99.90
52397;DHT22;38322;53.108;6.308;2023-04-16T10:52:12;13.90;99.90
52397;DHT22;38322;53.108;6.308;2023-04-16T10:54:38;13.90;99.90
52397;DHT22;38322;53.108;6.308;2023-04-16T10:57:13;13.80;99.90
52397;DHT22;38322;53.108;6.308;2023-04-16T10:59:41;13.80;99.90
52397;DHT22;38322;53.108;6.308;2023-04-16T11:02:12;13.60;99.90
52397;DHT22;38322;53.108;6.308;2023-04-16T11:04:41;13.60;99.90
52397;DHT22;38322;53.108;6.308;2023-04-16T11:12:13;13.60;99.90
52397;DHT22;38322;53.108;6.308;2023-04-16T11:14:40;13.60;99.90
52397;DHT22;38322;53.108;6.308;2023-04-16T11:17:07;13.70;99.90
52397;DHT22;38322;53.108;6.308;2023-04-16T11:19:34;13.60;99.90
52397;DHT22;38322;53.108;6.308;2023-04-16T11:22:01;13.60;99.90
52397;DHT22;38322;53.108;6.308;2023-04-16T11:24:29;13.50;99.90
52397;DHT22;38322;53.108;6.308;2023-04-16T11:26:55;13.50;99.90
52397;DHT22;38322;53.108;6.308;2023-04-16T11:29:21;13.60;99.90
52397;DHT22;38322;53.108;6.308;2023-04-16T11:31:54;13.60;99.90
52397;DHT22;38322;53.108;6.308;2023-04-16T11:34:20;13.60;99.90
52397;DHT22;38322;53.108;6.308;2023-04-16T11:36:47;13.60;99.90
52397;DHT22;38322;53.108;6.308;2023-04-16T11:39:13;13.50;99.90
52397;DHT22;38322;53.108;6.308;2023-04-16T11:41:45;13.60;99.90
52397;DHT22;38322;53.108;6.308;2023-04-16T11:46:42;13.60;99.90
52397;DHT22;38322;53.108;6.308;2023-04-16T11:49:08;13.70;99.90
52397;DHT22;38322;53.108;6.308;2023-04-16T11:51:40;13.80;99.90
52397;DHT22;38322;53.108;6.308;2023-04-16T11:54:06;13.80;99.90
52397;DHT22;38322;53.108;6.308;2023-04-16T11:56:35;14.00;99.90
52397;DHT22;38322;53.108;6.308;2023-04-16T11:59:10;14.00;99.90
52397;DHT22;38322;53.108;6.308;2023-04-16T12:01:38;14.10;99.90
52397;DHT22;38322;53.108;6.308;2023-04-16T12:04:05;14.10;99.90
52397;DHT22;38322;53.108;6.308;2023-04-16T12:06:31;14.10;99.90
52397;DHT22;38322;53.108;6.308;2023-04-16T12:08:58;14.20;99.90
52397;DHT22;38322;53.108;6.308;2023-04-16T12:11:39;14.20;99.90
52397;DHT22;38322;53.108;6.308;2023-04-16T12:14:08;14.20;99.90
52397;DHT22;38322;53.108;6.308;2023-04-16T12:16:35;14.30;99.90
52397;DHT22;38322;53.108;6.308;2023-04-16T12:19:01;14.30;99.90
52397;DHT22;38322;53.108;6.308;2023-04-16T12:21:43;14.20;99.90
52397;DHT22;38322;53.108;6.308;2023-04-16T12:24:12;14.20;99.90
52397;DHT22;38322;53.108;6.308;2023-04-16T12:26:40;14.10;99.90
52397;DHT22;38322;53.108;6.308;2023-04-16T12:29:14;14.10;99.90
52397;DHT22;38322;53.108;6.308;2023-04-16T12:31:40;14.00;99.90
52397;DHT22;38322;53.108;6.308;2023-04-16T12:34:06;13.90;99.90
52397;DHT22;38322;53.108;6.308;2023-04-16T12:36:32;13.90;99.90
52397;DHT22;38322;53.108;6.308;2023-04-16T12:38:58;13.90;99.90
52397;DHT22;38322;53.108;6.308;2023-04-16T12:41:24;14.00;99.90
52397;DHT22;38322;53.108;6.308;2023-04-16T12:43:50;14.00;99.90
52397;DHT22;38322;53.108;6.308;2023-04-16T12:46:15;14.10;99.90
52397;DHT22;38322;53.108;6.308;2023-04-16T12:48:41;14.10;99.90
52397;DHT22;38322;53.108;6.308;2023-04-16T12:51:08;14.10;99.90
52397;DHT22;38322;53.108;6.308;2023-04-16T12:53:34;14.30;99.90
52397;DHT22;38322;53.108;6.308;2023-04-16T12:55:59;14.40;99.90
52397;DHT22;38322;53.108;6.308;2023-04-16T12:58:25;14.50;99.90
52397;DHT22;38322;53.108;6.308;2023-04-16T13:00:51;14.70;99.90
52397;DHT22;38322;53.108;6.308;2023-04-16T13:03:17;14.80;99.90
52397;DHT22;38322;53.108;6.308;2023-04-16T13:05:45;14.90;99.90
52397;DHT22;38322;53.108;6.308;2023-04-16T13:08:11;15.00;99.90
52397;DHT22;38322;53.108;6.308;2023-04-16T13:10:37;14.80;99.90
52397;DHT22;38322;53.108;6.308;2023-04-16T13:13:04;14.80;99.90
52397;DHT22;38322;53.108;6.308;2023-04-16T13:15:29;14.60;99.90
52397;DHT22;38322;53.108;6.308;2023-04-16T13:17:55;14.70;99.90
52397;DHT22;38322;53.108;6.308;2023-04-16T13:20:21;14.90;99.90
52397;DHT22;38322;53.108;6.308;2023-04-16T13:22:47;15.10;99.90
52397;DHT22;38322;53.108;6.308;2023-04-16T13:25:12;15.10;99.90
52397;DHT22;38322;53.108;6.308;2023-04-16T13:27:38;15.00;99.90
52397;DHT22;38322;53.108;6.308;2023-04-16T13:30:04;14.90;99.90
52397;DHT22;38322;53.108;6.308;2023-04-16T13:32:31;15.00;99.90
52397;DHT22;38322;53.108;6.308;2023-04-16T13:34:57;15.00;99.90
52397;DHT22;38322;53.108;6.308;2023-04-16T13:37:23;15.00;99.90
52397;DHT22;38322;53.108;6.308;2023-04-16T13:39:49;15.00;99.90
52397;DHT22;38322;53.108;6.308;2023-04-16T13:42:15;14.90;99.90
52397;DHT22;38322;53.108;6.308;2023-04-16T13:44:41;15.00;99.90
52397;DHT22;38322;53.108;6.308;2023-04-16T13:47:07;15.00;99.90
52397;DHT22;38322;53.108;6.308;2023-04-16T13:49:33;15.20;99.90
52397;DHT22;38322;53.108;6.308;2023-04-16T13:51:59;15.30;99.90
52397;DHT22;38322;53.108;6.308;2023-04-16T13:54:25;15.40;99.90
52397;DHT22;38322;53.108;6.308;2023-04-16T13:56:51;15.60;99.90
52397;DHT22;38322;53.108;6.308;2023-04-16T13:59:17;15.60;99.90
52397;DHT22;38322;53.108;6.308;2023-04-16T14:01:43;15.50;99.90
52397;DHT22;38322;53.108;6.308;2023-04-16T14:04:09;15.40;99.90
52397;DHT22;38322;53.108;6.308;2023-04-16T14:06:35;15.20;99.90
52397;DHT22;38322;53.108;6.308;2023-04-16T14:09:01;15.00;99.90
52397;DHT22;38322;53.108;6.308;2023-04-16T14:11:27;14.90;99.90
52397;DHT22;38322;53.108;6.308;2023-04-16T14:13:52;14.90;99.90
52397;DHT22;38322;53.108;6.308;2023-04-16T14:16:18;14.90;99.90
52397;DHT22;38322;53.108;6.308;2023-04-16T14:18:45;15.00;99.90
52397;DHT22;38322;53.108;6.308;2023-04-16T14:21:12;15.10;99.90
52397;DHT22;38322;53.108;6.308;2023-04-16T14:23:38;15.10;99.90
52397;DHT22;38322;53.108;6.308;2023-04-16T14:26:04;15.10;99.90
52397;DHT22;38322;53.108;6.308;2023-04-16T14:28:29;15.20;99.90
52397;DHT22;38322;53.108;6.308;2023-04-16T14:30:56;15.20;99.90
52397;DHT22;38322;53.108;6.308;2023-04-16T14:33:22;15.20;99.90
52397;DHT22;38322;53.108;6.308;2023-04-16T14:35:48;15.10;99.90
52397;DHT22;38322;53.108;6.308;2023-04-16T14:38:15;15.00;99.90
52397;DHT22;38322;53.108;6.308;2023-04-16T14:40:41;14.90;99.90
52397;DHT22;38322;53.108;6.308;2023-04-16T14:43:07;14.80;99.90
52397;DHT22;38322;53.108;6.308;2023-04-16T14:45:33;14.80;99.90
52397;DHT22;38322;53.108;6.308;2023-04-16T14:47:59;14.90;99.90
52397;DHT22;38322;53.108;6.308;2023-04-16T14:50:25;15.00;99.90
52397;DHT22;38322;53.108;6.308;2023-04-16T14:52:51;15.00;99.90
52397;DHT22;38322;53.108;6.308;2023-04-16T14:55:19;15.00;99.90
52397;DHT22;38322;53.108;6.308;2023-04-16T14:57:45;14.90;99.90
52397;DHT22;38322;53.108;6.308;2023-04-16T15:00:13;14.90;99.90
52397;DHT22;38322;53.108;6.308;2023-04-16T15:02:42;14.90;99.90
52397;DHT22;38322;53.108;6.308;2023-04-16T15:05:08;14.80;99.90
52397;DHT22;38322;53.108;6.308;2023-04-16T15:07:35;14.70;99.90
52397;DHT22;38322;53.108;6.308;2023-04-16T15:10:01;14.60;99.90
52397;DHT22;38322;53.108;6.308;2023-04-16T15:12:27;14.60;99.90
52397;DHT22;38322;53.108;6.308;2023-04-16T15:14:53;14.30;99.90
52397;DHT22;38322;53.108;6.308;2023-04-16T15:17:19;14.20;99.90
52397;DHT22;38322;53.108;6.308;2023-04-16T15:19:47;14.10;99.90
52397;DHT22;38322;53.108;6.308;2023-04-16T15:22:13;13.90;99.90
52397;DHT22;38322;53.108;6.308;2023-04-16T15:24:39;13.70;99.90
52397;DHT22;38322;53.108;6.308;2023-04-16T15:27:05;13.70;99.90
52397;DHT22;38322;53.108;6.308;2023-04-16T15:29:31;13.80;99.90
52397;DHT22;38322;53.108;6.308;2023-04-16T15:31:57;13.80;99.90
52397;DHT22;38322;53.108;6.308;2023-04-16T15:34:23;13.80;99.90
52397;DHT22;38322;53.108;6.308;2023-04-16T15:36:49;13.80;99.90
52397;DHT22;38322;53.108;6.308;2023-04-16T15:39:15;13.80;99.90
52397;DHT22;38322;53.108;6.308;2023-04-16T15:41:40;13.70;99.90
52397;DHT22;38322;53.108;6.308;2023-04-16T15:44:06;13.70;99.90
52397;DHT22;38322;53.108;6.308;2023-04-16T15:46:32;13.60;99.90
52397;DHT22;38322;53.108;6.308;2023-04-16T15:48:58;13.70;99.90
52397;DHT22;38322;53.108;6.308;2023-04-16T15:51:24;13.70;99.90
52397;DHT22;38322;53.108;6.308;2023-04-16T15:53:51;13.70;99.90
52397;DHT22;38322;53.108;6.308;2023-04-16T15:56:18;13.60;99.90
52397;DHT22;38322;53.108;6.308;2023-04-16T15:58:44;13.60;99.90
52397;DHT22;38322;53.108;6.308;2023-04-16T16:01:10;13.60;99.90
52397;DHT22;38322;53.108;6.308;2023-04-16T16:03:36;13.60;99.90
52397;DHT22;38322;53.108;6.308;2023-04-16T16:06:02;13.50;99.90
52397;DHT22;38322;53.108;6.308;2023-04-16T16:08:29;13.40;99.90
52397;DHT22;38322;53.108;6.308;2023-04-16T16:11:00;13.20;99.90
52397;DHT22;38322;53.108;6.308;2023-04-16T16:13:26;12.90;99.90
52397;DHT22;38322;53.108;6.308;2023-04-16T16:15:52;12.60;99.90
52397;DHT22;38322;53.108;6.308;2023-04-16T16:18:18;12.40;99.90
52397;DHT22;38322;53.108;6.308;2023-04-16T16:20:47;12.20;99.90
52397;DHT22;38322;53.108;6.308;2023-04-16T16:23:12;12.00;99.90
52397;DHT22;38322;53.108;6.308;2023-04-16T16:25:38;11.80;99.90
52397;DHT22;38322;53.108;6.308;2023-04-16T16:28:07;11.60;99.90
52397;DHT22;38322;53.108;6.308;2023-04-16T16:30:33;11.40;99.90
52397;DHT22;38322;53.108;6.308;2023-04-16T16:32:59;11.30;99.90
52397;DHT22;38322;53.108;6.308;2023-04-16T16:35:25;11.20;99.90
52397;DHT22;38322;53.108;6.308;2023-04-16T16:37:51;11.10;99.90
52397;DHT22;38322;53.108;6.308;2023-04-16T16:40:20;11.10;99.90
52397;DHT22;38322;53.108;6.308;2023-04-16T16:42:46;11.00;99.90
52397;DHT22;38322;53.108;6.308;2023-04-16T16:45:12;11.00;99.90
52397;DHT22;38322;53.108;6.308;2023-04-16T16:47:38;11.00;99.90
52397;DHT22;38322;53.108;6.308;2023-04-16T16:50:04;11.00;99.90
52397;DHT22;38322;53.108;6.308;2023-04-16T16:52:30;10.90;99.90
52397;DHT22;38322;53.108;6.308;2023-04-16T16:54:56;10.90;99.90
52397;DHT22;38322;53.108;6.308;2023-04-16T16:57:22;10.90;99.90
52397;DHT22;38322;53.108;6.308;2023-04-16T16:59:48;10.80;99.90
52397;DHT22;38322;53.108;6.308;2023-04-16T17:02:16;10.70;99.90
52397;DHT22;38322;53.108;6.308;2023-04-16T17:04:42;10.60;99.90
52397;DHT22;38322;53.108;6.308;2023-04-16T17:07:08;10.60;99.90
52397;DHT22;38322;53.108;6.308;2023-04-16T17:09:34;10.50;99.90
52397;DHT22;38322;53.108;6.308;2023-04-16T17:12:00;10.40;99.90
52397;DHT22;38322;53.108;6.308;2023-04-16T17:14:26;10.30;99.90
52397;DHT22;38322;53.108;6.308;2023-04-16T17:16:51;10.20;99.90
52397;DHT22;38322;53.108;6.308;2023-04-16T17:19:17;10.10;99.90
52397;DHT22;38322;53.108;6.308;2023-04-16T17:21:43;9.90;99.90
52397;DHT22;38322;53.108;6.308;2023-04-16T17:24:09;9.80;99.90
52397;DHT22;38322;53.108;6.308;2023-04-16T17:26:35;9.70;99.90
52397;DHT22;38322;53.108;6.308;2023-04-16T17:29:01;9.60;99.90
52397;DHT22;38322;53.108;6.308;2023-04-16T17:31:27;9.50;99.90
52397;DHT22;38322;53.108;6.308;2023-04-16T17:33:52;9.40;99.90
52397;DHT22;38322;53.108;6.308;2023-04-16T17:36:18;9.50;99.90
52397;DHT22;38322;53.108;6.308;2023-04-16T17:38:46;9.40;99.90
52397;DHT22;38322;53.108;6.308;2023-04-16T17:41:12;9.40;99.90
52397;DHT22;38322;53.108;6.308;2023-04-16T17:43:38;9.50;99.90
52397;DHT22;38322;53.108;6.308;2023-04-16T17:46:04;9.40;99.90
52397;DHT22;38322;53.108;6.308;2023-04-16T17:48:30;9.40;99.90
52397;DHT22;38322;53.108;6.308;2023-04-16T17:50:56;9.40;99.90
52397;DHT22;38322;53.108;6.308;2023-04-16T17:53:22;9.30;99.90
52397;DHT22;38322;53.108;6.308;2023-04-16T17:55:50;9.30;99.90
52397;DHT22;38322;53.108;6.308;2023-04-16T17:58:16;9.20;99.90
52397;DHT22;38322;53.108;6.308;2023-04-16T18:00:42;9.10;99.90
52397;DHT22;38322;53.108;6.308;2023-04-16T18:03:11;9.10;99.90
52397;DHT22;38322;53.108;6.308;2023-04-16T18:05:38;9.00;99.90
52397;DHT22;38322;53.108;6.308;2023-04-16T18:08:05;9.00;99.90
52397;DHT22;38322;53.108;6.308;2023-04-16T18:10:31;9.00;99.90
52397;DHT22;38322;53.108;6.308;2023-04-16T18:12:57;9.00;99.90
52397;DHT22;38322;53.108;6.308;2023-04-16T18:15:24;8.90;99.90
52397;DHT22;38322;53.108;6.308;2023-04-16T18:17:49;8.90;99.90
52397;DHT22;38322;53.108;6.308;2023-04-16T18:20:15;8.90;99.90
52397;DHT22;38322;53.108;6.308;2023-04-16T18:22:44;8.80;99.90
52397;DHT22;38322;53.108;6.308;2023-04-16T18:25:10;8.80;99.90
52397;DHT22;38322;53.108;6.308;2023-04-16T18:27:36;8.70;99.90
52397;DHT22;38322;53.108;6.308;2023-04-16T18:30:02;8.60;99.90
52397;DHT22;38322;53.108;6.308;2023-04-16T18:32:28;8.60;99.90
52397;DHT22;38322;53.108;6.308;2023-04-16T18:34:54;8.50;99.90
52397;DHT22;38322;53.108;6.308;2023-04-16T18:37:20;8.40;99.90
52397;DHT22;38322;53.108;6.308;2023-04-16T18:39:46;8.40;99.90
52397;DHT22;38322;53.108;6.308;2023-04-16T18:42:12;8.40;99.90
52397;DHT22;38322;53.108;6.308;2023-04-16T18:44:37;8.40;99.90
52397;DHT22;38322;53.108;6.308;2023-04-16T18:47:03;8.30;99.90
52397;DHT22;38322;53.108;6.308;2023-04-16T18:49:29;8.40;99.90
52397;DHT22;38322;53.108;6.308;2023-04-16T18:51:55;8.30;99.90
52397;DHT22;38322;53.108;6.308;2023-04-16T18:54:21;8.30;99.90
52397;DHT22;38322;53.108;6.308;2023-04-16T18:56:47;8.20;99.90
52397;DHT22;38322;53.108;6.308;2023-04-16T18:59:13;8.10;99.90
52397;DHT22;38322;53.108;6.308;2023-04-16T19:01:39;8.10;99.90
52397;DHT22;38322;53.108;6.308;2023-04-16T19:04:05;8.10;99.90
52397;DHT22;38322;53.108;6.308;2023-04-16T19:06:31;8.10;99.90
52397;DHT22;38322;53.108;6.308;2023-04-16T19:08:57;8.00;99.90
52397;DHT22;38322;53.108;6.308;2023-04-16T19:11:23;8.00;99.90
52397;DHT22;38322;53.108;6.308;2023-04-16T19:13:49;7.90;99.90
52397;DHT22;38322;53.108;6.308;2023-04-16T19:16:15;7.90;99.90
52397;DHT22;38322;53.108;6.308;2023-04-16T19:18:41;7.90;99.90
52397;DHT22;38322;53.108;6.308;2023-04-16T19:21:07;7.90;99.90
52397;DHT22;38322;53.108;6.308;2023-04-16T19:23:35;7.90;99.90
52397;DHT22;38322;53.108;6.308;2023-04-16T19:26:01;7.90;99.90
52397;DHT22;38322;53.108;6.308;2023-04-16T19:28:27;7.90;99.90
52397;DHT22;38322;53.108;6.308;2023-04-16T19:30:53;7.90;99.90
52397;DHT22;38322;53.108;6.308;2023-04-16T19:33:19;7.80;99.90
52397;DHT22;38322;53.108;6.308;2023-04-16T19:35:45;7.80;99.90
52397;DHT22;38322;53.108;6.308;2023-04-16T19:38:12;7.80;99.90
52397;DHT22;38322;53.108;6.308;2023-04-16T19:40:37;7.80;99.90
52397;DHT22;38322;53.108;6.308;2023-04-16T19:43:04;7.70;99.90
52397;DHT22;38322;53.108;6.308;2023-04-16T19:45:30;7.70;99.90
52397;DHT22;38322;53.108;6.308;2023-04-16T19:47:56;7.60;99.90
52397;DHT22;38322;53.108;6.308;2023-04-16T19:50:22;7.60;99.90
52397;DHT22;38322;53.108;6.308;2023-04-16T19:52:48;7.50;99.90
52397;DHT22;38322;53.108;6.308;2023-04-16T19:55:14;7.50;99.90
52397;DHT22;38322;53.108;6.308;2023-04-16T19:57:40;7.50;99.90
52397;DHT22;38322;53.108;6.308;2023-04-16T20:00:06;7.30;99.90
